createdAt,value
2022-10-28T00:01:30.055Z,6.38
2022-10-28T00:04:02.137Z,10.82
2022-10-28T00:06:34.996Z,8.38
2022-10-28T00:09:08.133Z,9.45
2022-10-28T00:11:39.492Z,8.15
2022-10-28T00:14:10.548Z,8.98
2022-10-28T00:16:39.365Z,9.02
2022-10-28T00:19:12.128Z,8.02
2022-10-28T00:21:42.515Z,8.50
2022-10-28T00:24:13.152Z,9.20
2022-10-28T00:26:43.473Z,8.30
2022-10-28T00:29:15.086Z,9.15
2022-10-28T00:31:44.565Z,13.68
2022-10-28T00:34:16.512Z,9.25
2022-10-28T00:36:47.190Z,8.07
2022-10-28T00:39:18.038Z,10.05
2022-10-28T00:41:50.091Z,9.10
2022-10-28T00:44:57.810Z,6.05
2022-10-28T00:47:44.993Z,10.35
2022-10-28T00:50:40.436Z,11.55
2022-10-28T00:53:13.902Z,10.73
2022-10-28T00:55:43.969Z,9.77
2022-10-28T00:58:13.029Z,12.45
2022-10-28T01:00:41.486Z,6.70
2022-10-28T01:03:10.445Z,9.23
2022-10-28T01:05:44.189Z,12.35
2022-10-28T01:08:12.713Z,10.00
2022-10-28T01:11:29.651Z,9.35
2022-10-28T01:14:19.546Z,10.90
2022-10-28T01:17:09.905Z,9.45
2022-10-28T01:20:37.721Z,8.27
2022-10-28T01:23:20.404Z,8.82
2022-10-28T01:26:30.885Z,9.70
2022-10-28T01:29:34.110Z,8.85
2022-10-28T01:32:11.472Z,9.02
2022-10-28T01:34:52.330Z,11.75
2022-10-28T01:37:33.436Z,9.10
2022-10-28T01:40:13.304Z,8.63
2022-10-28T01:42:49.892Z,10.07
2022-10-28T01:45:27.749Z,12.05
2022-10-28T01:48:02.397Z,6.55
2022-10-28T01:50:38.393Z,7.57
2022-10-28T01:53:13.855Z,9.55
2022-10-28T01:55:47.116Z,9.98
2022-10-28T01:58:21.184Z,10.05
2022-10-28T02:00:51.233Z,10.88
2022-10-28T02:03:20.891Z,7.53
2022-10-28T02:05:53.287Z,9.37
2022-10-28T02:08:44.838Z,8.23
2022-10-28T02:11:42.133Z,10.20
2022-10-28T02:14:35.920Z,11.18
2022-10-28T02:17:19.884Z,7.80
2022-10-28T02:19:59.175Z,16.17
2022-10-28T02:22:41.712Z,12.15
2022-10-28T02:25:16.035Z,12.13
2022-10-28T02:27:50.385Z,11.02
2022-10-28T02:30:24.859Z,11.70
2022-10-28T02:32:59.604Z,8.65
2022-10-28T02:35:34.371Z,9.57
2022-10-28T02:38:10.714Z,8.57
2022-10-28T02:40:40.557Z,10.73
2022-10-28T02:43:14.301Z,8.90
2022-10-28T02:45:47.180Z,10.50
2022-10-28T02:48:22.495Z,10.73
2022-10-28T02:50:59.801Z,13.10
2022-10-28T02:53:33.754Z,11.48
2022-10-28T02:56:05.386Z,10.18
2022-10-28T02:58:40.762Z,12.38
2022-10-28T03:01:09.313Z,10.57
2022-10-28T03:03:37.839Z,9.77
2022-10-28T03:06:07.610Z,10.32
2022-10-28T03:08:35.680Z,7.90
2022-10-28T03:11:03.855Z,10.88
2022-10-28T03:13:32.013Z,12.82
2022-10-28T03:16:01.289Z,10.13
2022-10-28T03:18:29.376Z,6.40
2022-10-28T03:20:59.044Z,7.38
2022-10-28T03:23:28.711Z,11.57
2022-10-28T03:25:56.768Z,6.90
2022-10-28T03:28:24.969Z,13.52
2022-10-28T03:30:53.017Z,7.57
2022-10-28T03:33:21.122Z,7.47
2022-10-28T03:35:49.181Z,11.88
2022-10-28T03:38:17.264Z,11.27
2022-10-28T03:40:49.402Z,9.07
2022-10-28T03:43:18.033Z,12.75
2022-10-28T03:45:46.283Z,9.45
2022-10-28T03:48:14.449Z,8.40
2022-10-28T03:50:42.486Z,10.85
2022-10-28T03:53:10.677Z,11.05
2022-10-28T03:55:38.784Z,9.07
2022-10-28T03:58:08.228Z,9.95
2022-10-28T04:00:36.373Z,9.73
2022-10-28T04:03:04.478Z,8.90
2022-10-28T04:05:32.559Z,10.90
2022-10-28T04:08:00.661Z,13.13
2022-10-28T04:10:28.782Z,13.18
2022-10-28T04:13:01.455Z,12.18
2022-10-28T04:15:31.332Z,13.30
2022-10-28T04:17:59.561Z,13.27
2022-10-28T04:20:28.598Z,13.02
2022-10-28T04:22:57.595Z,15.20
2022-10-28T04:25:27.892Z,15.10
2022-10-28T04:27:56.490Z,15.65
2022-10-28T04:30:25.401Z,14.23
2022-10-28T04:32:54.853Z,12.50
2022-10-28T04:35:22.994Z,12.68
2022-10-28T04:37:51.409Z,13.18
2022-10-28T04:40:20.021Z,12.60
2022-10-28T04:42:48.102Z,12.13
2022-10-28T04:45:16.419Z,9.98
2022-10-28T04:47:44.532Z,11.95
2022-10-28T04:50:14.033Z,14.00
2022-10-28T04:52:42.120Z,11.05
2022-10-28T04:55:10.780Z,11.48
2022-10-28T04:57:38.868Z,9.13
2022-10-28T05:00:08.624Z,16.67
2022-10-28T05:02:36.741Z,14.20
2022-10-28T05:05:05.400Z,9.10
2022-10-28T05:07:35.548Z,13.43
2022-10-28T05:10:03.817Z,17.42
2022-10-28T05:12:32.110Z,12.30
2022-10-28T05:15:00.553Z,14.23
2022-10-28T05:17:28.651Z,11.05
2022-10-28T05:19:56.968Z,10.05
2022-10-28T05:22:25.308Z,13.25
2022-10-28T05:24:54.788Z,10.10
2022-10-28T05:27:22.886Z,15.82
2022-10-28T05:29:50.981Z,7.88
2022-10-28T05:32:19.049Z,10.52
2022-10-28T05:34:47.186Z,13.13
2022-10-28T05:37:15.303Z,11.93
2022-10-28T05:39:43.417Z,11.55
2022-10-28T05:42:12.861Z,12.70
2022-10-28T05:44:40.996Z,12.82
2022-10-28T05:47:09.251Z,15.93
2022-10-28T05:49:37.404Z,14.90
2022-10-28T05:52:05.872Z,15.30
2022-10-28T05:54:33.951Z,15.30
2022-10-28T05:57:02.085Z,13.98
2022-10-28T05:59:31.476Z,13.88
2022-10-28T06:01:59.679Z,16.67
2022-10-28T06:04:27.809Z,15.18
2022-10-28T06:06:56.925Z,14.57
2022-10-28T06:09:25.020Z,12.45
2022-10-28T06:11:51.567Z,13.30
2022-10-28T06:14:19.655Z,17.33
2022-10-28T06:16:49.393Z,14.15
2022-10-28T06:19:17.705Z,12.90
2022-10-28T06:21:46.009Z,14.38
2022-10-28T06:24:14.450Z,15.05
2022-10-28T06:26:43.337Z,14.40
2022-10-28T06:29:11.820Z,14.90
2022-10-28T06:31:39.982Z,12.85
2022-10-28T06:34:11.076Z,14.18
2022-10-28T06:36:39.512Z,17.38
2022-10-28T06:39:07.748Z,12.80
2022-10-28T06:41:35.916Z,13.55
2022-10-28T06:44:04.567Z,13.43
2022-10-28T06:46:34.493Z,16.50
2022-10-28T06:49:03.175Z,14.95
2022-10-28T06:51:33.387Z,20.00
2022-10-28T06:54:01.532Z,15.52
2022-10-28T06:56:29.599Z,14.52
2022-10-28T06:58:57.700Z,12.43
2022-10-28T07:01:25.903Z,18.52
2022-10-28T07:03:54.041Z,15.70
2022-10-28T07:06:22.154Z,14.68
2022-10-28T07:08:52.567Z,18.90
2022-10-28T07:11:20.727Z,14.10
2022-10-28T07:13:49.137Z,15.23
2022-10-28T07:16:17.309Z,16.85
2022-10-28T07:18:45.420Z,13.50
2022-10-28T07:21:14.267Z,16.75
2022-10-28T07:23:42.397Z,13.45
2022-10-28T07:26:11.905Z,16.85
2022-10-28T07:28:39.988Z,14.88
2022-10-28T07:31:08.194Z,15.00
2022-10-28T07:33:36.383Z,14.73
2022-10-28T07:36:05.890Z,17.33
2022-10-28T07:38:35.309Z,15.82
2022-10-28T07:41:06.577Z,12.32
2022-10-28T07:43:38.407Z,9.90
2022-10-28T07:46:08.439Z,11.27
2022-10-28T07:48:38.148Z,14.77
2022-10-28T07:51:08.357Z,12.38
2022-10-28T07:53:36.595Z,11.52
2022-10-28T07:56:09.599Z,12.55
2022-10-28T07:58:39.032Z,10.13
2022-10-28T08:01:10.140Z,10.55
2022-10-28T08:03:39.242Z,9.60
2022-10-28T08:06:10.568Z,11.63
2022-10-28T08:08:40.542Z,8.13
2022-10-28T08:11:13.020Z,9.38
2022-10-28T08:13:43.062Z,14.63
2022-10-28T08:16:11.565Z,11.30
2022-10-28T08:18:40.530Z,9.02
2022-10-28T08:21:11.683Z,9.18
2022-10-28T08:23:41.359Z,6.13
2022-10-28T08:26:09.687Z,5.30
2022-10-28T08:28:37.762Z,8.52
2022-10-28T08:31:10.125Z,8.55
2022-10-28T08:33:40.837Z,7.95
2022-10-28T08:36:11.511Z,8.20
2022-10-28T08:38:44.304Z,5.43
2022-10-28T08:41:36.380Z,7.80
2022-10-28T08:44:47.018Z,6.38
2022-10-28T08:47:39.887Z,5.63
2022-10-28T08:50:15.997Z,9.02
2022-10-28T08:52:55.520Z,5.78
2022-10-28T08:55:29.401Z,5.68
2022-10-28T08:58:03.624Z,6.97
2022-10-28T09:00:34.771Z,7.18
2022-10-28T09:03:18.097Z,4.40
2022-10-28T09:05:50.466Z,6.07
2022-10-28T09:08:24.833Z,3.97
2022-10-28T09:11:14.969Z,6.28
2022-10-28T09:14:01.679Z,6.15
2022-10-28T09:16:46.529Z,6.07
2022-10-28T09:19:39.457Z,7.57
2022-10-28T09:22:22.979Z,4.75
2022-10-28T09:24:56.491Z,4.65
2022-10-28T09:27:54.383Z,6.97
2022-10-28T09:30:35.859Z,5.32
2022-10-28T09:33:22.534Z,7.05
2022-10-28T09:35:53.475Z,7.68
2022-10-28T09:38:28.503Z,4.47
2022-10-28T09:41:05.283Z,3.97
2022-10-28T09:43:36.981Z,4.05
2022-10-28T09:46:13.276Z,4.43
2022-10-28T09:48:46.984Z,10.23
2022-10-28T09:51:30.673Z,6.10
2022-10-28T09:54:01.077Z,3.28
2022-10-28T09:56:31.190Z,6.03
2022-10-28T09:59:03.223Z,5.15
2022-10-28T10:01:35.225Z,4.80
2022-10-28T10:04:13.531Z,5.47
2022-10-28T10:06:44.114Z,3.25
2022-10-28T10:09:21.604Z,6.55
2022-10-28T10:11:56.694Z,4.95
2022-10-28T10:14:32.398Z,2.83
2022-10-28T10:17:05.931Z,4.43
2022-10-28T10:20:03.800Z,4.20
2022-10-28T10:22:36.516Z,4.28
2022-10-28T10:25:05.795Z,8.07
2022-10-28T10:27:34.598Z,8.20
2022-10-28T10:30:02.963Z,5.63
2022-10-28T10:32:33.854Z,4.72
2022-10-28T10:35:17.458Z,3.20
2022-10-28T10:37:48.900Z,7.05
2022-10-28T10:40:26.346Z,5.20
2022-10-28T10:43:12.902Z,3.33
2022-10-28T10:45:43.059Z,6.68
2022-10-28T10:48:16.124Z,6.15
2022-10-28T10:50:47.988Z,5.63
2022-10-28T10:53:24.616Z,3.15
2022-10-28T10:55:58.196Z,4.43
2022-10-28T10:58:32.015Z,4.57
2022-10-28T11:01:04.162Z,5.70
2022-10-28T11:03:38.286Z,4.50
2022-10-28T11:06:23.081Z,9.88
2022-10-28T11:09:00.581Z,4.15
2022-10-28T11:11:38.101Z,4.85
2022-10-28T11:14:19.066Z,2.83
2022-10-28T11:16:53.326Z,3.53
2022-10-28T11:19:24.556Z,5.90
2022-10-28T11:22:13.448Z,3.80
2022-10-28T11:25:20.408Z,5.07
2022-10-28T11:28:04.644Z,6.15
2022-10-28T11:30:49.878Z,3.30
2022-10-28T11:33:30.155Z,4.60
2022-10-28T11:36:12.651Z,3.72
2022-10-28T11:39:05.734Z,4.82
2022-10-28T11:41:55.001Z,5.53
2022-10-28T11:44:44.925Z,5.68
2022-10-28T11:47:43.091Z,4.53
2022-10-28T11:50:39.666Z,5.80
2022-10-28T11:53:44.549Z,5.07
2022-10-28T11:56:28.525Z,3.42
2022-10-28T11:59:25.522Z,3.90
2022-10-28T12:02:11.659Z,5.45
2022-10-28T12:05:05.593Z,5.93
2022-10-28T12:08:01.999Z,3.72
2022-10-28T12:11:02.977Z,10.80
2022-10-28T12:13:41.250Z,3.47
2022-10-28T12:16:21.412Z,4.90
2022-10-28T12:18:57.594Z,3.30
2022-10-28T12:21:36.536Z,3.13
2022-10-28T12:24:14.078Z,2.67
2022-10-28T12:26:48.736Z,4.28
2022-10-28T12:29:25.509Z,6.38
2022-10-28T12:32:01.092Z,3.38
2022-10-28T12:37:11.513Z,3.55
2022-10-28T12:39:49.570Z,2.72
2022-10-28T12:42:25.667Z,4.15
2022-10-28T12:44:59.092Z,3.92
2022-10-28T12:47:43.009Z,6.57
2022-10-28T12:50:26.271Z,6.43
2022-10-28T12:53:07.325Z,4.05
2022-10-28T12:55:42.526Z,9.55
2022-10-28T12:58:21.002Z,6.90
2022-10-28T13:00:55.466Z,8.25
2022-10-28T13:03:25.343Z,4.88
2022-10-28T13:06:20.343Z,5.50
2022-10-28T13:09:24.136Z,4.97
2022-10-28T13:12:23.473Z,7.00
2022-10-28T13:15:36.917Z,4.18
2022-10-28T13:18:38.148Z,2.72
2022-10-28T13:21:24.127Z,4.45
2022-10-28T13:24:02.773Z,6.63
2022-10-28T13:26:35.957Z,5.90
2022-10-28T13:29:08.183Z,4.75
2022-10-28T13:31:42.946Z,4.32
2022-10-28T13:34:15.608Z,6.47
2022-10-28T13:36:51.230Z,8.10
2022-10-28T13:39:41.003Z,6.28
2022-10-28T13:42:56.018Z,5.57
2022-10-28T13:45:52.127Z,4.57
2022-10-28T13:48:49.203Z,5.43
2022-10-28T13:51:47.987Z,4.45
2022-10-28T13:54:29.367Z,4.68
2022-10-28T13:57:07.701Z,9.18
2022-10-28T13:59:54.758Z,4.53
2022-10-28T14:02:36.168Z,4.75
2022-10-28T14:05:09.121Z,2.60
2022-10-28T14:07:51.938Z,3.92
2022-10-28T14:10:26.133Z,6.90
2022-10-28T14:12:58.437Z,6.30
2022-10-28T14:15:31.539Z,7.28
2022-10-28T14:18:16.076Z,6.22
2022-10-28T14:21:01.477Z,5.03
2022-10-28T14:24:11.791Z,5.78
2022-10-28T14:27:25.450Z,5.60
2022-10-28T14:30:23.761Z,3.45
2022-10-28T14:33:22.614Z,7.07
2022-10-28T14:36:26.328Z,6.07
2022-10-28T14:39:25.009Z,4.03
2022-10-28T14:42:13.116Z,4.90
2022-10-28T14:45:06.234Z,6.60
2022-10-28T14:48:17.517Z,3.22
2022-10-28T14:50:49.565Z,6.82
2022-10-28T14:53:26.548Z,7.75
2022-10-28T14:56:03.810Z,9.18
2022-10-28T14:58:38.497Z,7.18
2022-10-28T15:01:27.176Z,6.13
2022-10-28T15:04:00.293Z,6.72
2022-10-28T15:06:38.944Z,7.85
2022-10-28T15:09:21.044Z,4.40
2022-10-28T15:11:55.840Z,3.75
2022-10-28T15:14:45.987Z,6.05
2022-10-28T15:17:18.803Z,5.22
2022-10-28T15:19:49.746Z,7.82
2022-10-28T15:22:22.633Z,8.20
2022-10-28T15:24:56.451Z,6.93
2022-10-28T15:27:28.970Z,11.20
2022-10-28T15:29:57.875Z,3.47
2022-10-28T15:32:33.248Z,5.03
2022-10-28T15:35:38.920Z,5.05
2022-10-28T15:38:39.216Z,5.72
2022-10-28T15:41:42.335Z,6.65
2022-10-28T15:44:29.011Z,5.25
2022-10-28T15:46:58.392Z,4.80
2022-10-28T15:49:39.193Z,6.50
2022-10-28T15:52:33.516Z,6.95
2022-10-28T15:55:03.433Z,8.43
2022-10-28T15:57:46.936Z,10.13
2022-10-28T16:00:26.520Z,7.82
2022-10-28T16:02:58.738Z,5.35
2022-10-28T16:05:56.439Z,9.23
2022-10-28T16:08:31.403Z,9.27
2022-10-28T16:11:03.747Z,11.00
2022-10-28T16:13:37.470Z,11.82
2022-10-28T16:16:13.545Z,9.05
2022-10-28T16:18:45.434Z,10.45
2022-10-28T16:21:20.857Z,11.55
2022-10-28T16:23:56.221Z,7.85
2022-10-28T16:26:24.604Z,9.70
2022-10-28T16:28:53.152Z,8.65
2022-10-28T16:31:27.287Z,7.15
2022-10-28T16:33:55.817Z,8.02
2022-10-28T16:36:23.987Z,10.15
2022-10-28T16:38:52.266Z,6.85
2022-10-28T16:41:21.413Z,6.18
2022-10-28T16:43:49.580Z,7.22
2022-10-28T16:46:17.897Z,8.57
2022-10-28T16:48:47.366Z,5.75
2022-10-28T16:51:18.890Z,5.95
2022-10-28T16:53:49.631Z,8.65
2022-10-28T16:56:19.119Z,10.43
2022-10-28T16:58:47.302Z,4.53
2022-10-28T17:01:21.001Z,6.40
2022-10-28T17:03:50.657Z,6.03
2022-10-28T17:06:18.940Z,6.47
2022-10-28T17:09:02.551Z,5.30
2022-10-28T17:14:04.766Z,7.57
2022-10-28T17:16:32.966Z,9.25
2022-10-28T17:19:02.454Z,9.98
2022-10-28T17:21:30.689Z,6.50
2022-10-28T17:23:58.974Z,6.47
2022-10-28T17:26:27.280Z,7.53
2022-10-28T17:28:55.453Z,5.57
2022-10-28T17:31:25.167Z,4.28
2022-10-28T17:33:57.437Z,6.18
2022-10-28T17:36:27.102Z,11.90
2022-10-28T17:38:56.169Z,6.72
2022-10-28T17:41:24.298Z,8.25
2022-10-28T17:43:54.201Z,7.10
2022-10-28T17:46:25.008Z,7.85
2022-10-28T17:48:53.234Z,8.90
2022-10-28T17:51:22.333Z,9.52
2022-10-28T17:53:55.800Z,7.03
2022-10-28T17:56:24.243Z,6.50
2022-10-28T17:58:54.431Z,6.38
2022-10-28T18:01:22.761Z,10.57
2022-10-28T18:03:51.514Z,8.77
2022-10-28T18:06:19.769Z,9.25
2022-10-28T18:08:48.414Z,7.10
2022-10-28T18:11:20.725Z,9.85
2022-10-28T18:13:52.810Z,8.68
2022-10-28T18:16:24.089Z,7.53
2022-10-28T18:18:53.704Z,7.18
2022-10-28T18:21:22.684Z,7.43
2022-10-28T18:23:53.690Z,7.43
2022-10-28T18:26:23.596Z,6.57
2022-10-28T18:28:51.835Z,7.18
2022-10-28T18:31:21.393Z,7.60
2022-10-28T18:33:50.132Z,9.93
2022-10-28T18:36:21.979Z,5.72
2022-10-28T18:38:51.298Z,7.95
2022-10-28T18:41:23.565Z,8.23
2022-10-28T18:43:55.017Z,6.85
2022-10-28T18:46:23.731Z,7.43
2022-10-28T18:48:52.273Z,7.30
2022-10-28T18:51:20.587Z,6.00
2022-10-28T18:53:50.129Z,6.10
2022-10-28T18:56:21.157Z,9.55
2022-10-28T18:58:52.263Z,10.50
2022-10-28T19:01:23.180Z,8.10
2022-10-28T19:03:54.068Z,8.50
2022-10-28T19:06:23.021Z,6.72
2022-10-28T19:08:56.110Z,6.82
2022-10-28T19:11:29.987Z,5.78
2022-10-28T19:14:01.099Z,7.65
2022-10-28T19:16:33.241Z,8.65
2022-10-28T19:19:03.235Z,11.10
2022-10-28T19:21:32.022Z,4.50
2022-10-28T19:24:00.583Z,9.18
2022-10-28T19:26:30.323Z,9.15
2022-10-28T19:29:00.158Z,8.68
2022-10-28T19:31:30.114Z,11.57
2022-10-28T19:33:58.357Z,8.35
2022-10-28T19:36:28.976Z,11.27
2022-10-28T19:38:58.875Z,10.32
2022-10-28T19:41:29.459Z,6.30
2022-10-28T19:44:01.230Z,11.35
2022-10-28T19:46:31.383Z,7.38
2022-10-28T19:49:03.116Z,8.63
2022-10-28T19:51:33.349Z,9.80
2022-10-28T19:54:03.678Z,6.85
2022-10-28T19:56:34.550Z,6.57
2022-10-28T19:59:06.488Z,7.45
2022-10-28T20:01:37.356Z,8.18
2022-10-28T20:04:07.159Z,10.75
2022-10-28T20:06:37.480Z,7.78
2022-10-28T20:09:06.898Z,8.10
2022-10-28T20:11:38.474Z,10.70
2022-10-28T20:14:11.559Z,9.90
2022-10-28T20:16:43.202Z,15.85
2022-10-28T20:19:11.849Z,17.98
2022-10-28T20:21:40.718Z,12.43
2022-10-28T20:24:09.982Z,11.85
2022-10-28T20:26:39.602Z,11.80
2022-10-28T20:29:09.929Z,9.90
2022-10-28T20:31:39.753Z,12.30
2022-10-28T20:34:08.855Z,9.30
2022-10-28T20:36:39.475Z,7.70
2022-10-28T20:39:12.339Z,6.93
2022-10-28T20:41:42.256Z,7.32
2022-10-28T20:44:12.230Z,5.18
2022-10-28T20:46:41.087Z,6.50
2022-10-28T20:49:10.570Z,7.05
2022-10-28T20:51:38.876Z,7.25
2022-10-28T20:54:07.624Z,6.95
2022-10-28T20:56:37.833Z,4.07
2022-10-28T20:59:06.261Z,6.80
2022-10-28T21:01:38.900Z,6.47
2022-10-28T21:04:10.196Z,5.70
2022-10-28T21:06:39.252Z,4.03
2022-10-28T21:09:08.766Z,5.63
2022-10-28T21:11:36.979Z,5.70
2022-10-28T21:14:05.094Z,7.55
2022-10-28T21:16:33.299Z,7.63
2022-10-28T21:19:02.825Z,4.00
2022-10-28T21:21:31.593Z,7.53
2022-10-28T21:23:59.786Z,6.03
2022-10-28T21:26:28.050Z,7.40
2022-10-28T21:28:56.381Z,5.57
2022-10-28T21:31:24.918Z,8.18
2022-10-28T21:33:53.361Z,5.88
2022-10-28T21:36:23.813Z,6.93
2022-10-28T21:38:55.829Z,5.97
2022-10-28T21:41:24.903Z,6.53
2022-10-28T21:43:54.952Z,6.53
2022-10-28T21:46:24.308Z,9.15
2022-10-28T21:48:53.620Z,7.95
2022-10-28T21:51:23.080Z,7.22
2022-10-28T21:53:51.196Z,5.80
2022-10-28T21:56:21.222Z,8.95
2022-10-28T21:58:51.471Z,10.30
2022-10-28T22:01:22.532Z,9.60
2022-10-28T22:03:52.397Z,7.22
2022-10-28T22:06:22.121Z,9.57
2022-10-28T22:08:50.280Z,8.10
2022-10-28T22:11:21.229Z,8.68
2022-10-28T22:13:55.738Z,6.13
2022-10-28T22:16:23.856Z,10.93
2022-10-28T22:18:52.396Z,8.70
2022-10-28T22:21:24.460Z,8.27
2022-10-28T22:23:53.397Z,8.13
2022-10-28T22:26:24.719Z,6.07
2022-10-28T22:28:53.432Z,5.03
2022-10-28T22:31:24.431Z,6.57
2022-10-28T22:33:53.151Z,7.03
2022-10-28T22:36:25.509Z,5.85
2022-10-28T22:38:54.457Z,9.18
2022-10-28T22:41:24.719Z,7.75
2022-10-28T22:43:55.309Z,6.18
2022-10-28T22:46:26.101Z,7.22
2022-10-28T22:48:55.551Z,10.10
2022-10-28T22:51:25.367Z,15.02
2022-10-28T22:53:53.507Z,9.85
2022-10-28T22:56:24.433Z,9.43
2022-10-28T22:58:55.989Z,7.50
2022-10-28T23:01:25.496Z,8.10
2022-10-28T23:03:54.973Z,7.15
2022-10-28T23:06:26.630Z,8.77
2022-10-28T23:08:55.207Z,6.63
2022-10-28T23:11:24.408Z,5.63
2022-10-28T23:13:53.726Z,4.72
2022-10-28T23:16:23.743Z,7.75
2022-10-28T23:18:52.792Z,6.88
2022-10-28T23:21:23.267Z,4.78
2022-10-28T23:23:56.569Z,6.32
2022-10-28T23:26:25.873Z,7.45
2022-10-28T23:28:56.396Z,5.65
2022-10-28T23:31:25.377Z,8.23
2022-10-28T23:33:54.540Z,7.18
2022-10-28T23:36:23.558Z,5.70
2022-10-28T23:38:52.424Z,4.43
2022-10-28T23:41:21.847Z,8.20
2022-10-28T23:43:50.523Z,7.55
2022-10-28T23:46:20.351Z,6.88
2022-10-28T23:48:48.585Z,7.28
2022-10-28T23:51:16.827Z,9.55
2022-10-28T23:53:44.912Z,4.07
2022-10-28T23:56:12.988Z,11.23
2022-10-28T23:58:42.463Z,7.07
